Time;durP1;ratioP1;P1;durP2;ratioP2;P2;SDS_P1;SDS_P2;PMS_P1;PMS_P2;Temp;Humidity;BMP_temperature;BMP_pressure;BME280_temperature;BME280_humidity;BME280_pressure;Samples;Min_cycle;Max_cycle;Signal;HPM_P1;HPM_P2
2022/09/30 00:00:55;;;;;;;7.32;5.82;;;;;;;22.45;65.34;100953.00;5073420;28;20444;-86
2022/09/30 00:03:22;;;;;;;8.32;5.70;;;;;;;22.29;65.21;100925.38;5060079;28;20040;-87
2022/09/30 00:05:58;;;;;;;7.55;5.95;;;;;;;22.40;66.12;100940.56;5047714;28;20024;-87
2022/09/30 00:08:24;;;;;;;7.78;5.68;;;;;;;22.46;64.99;100953.91;5070965;28;20467;-86
2022/09/30 00:10:57;;;;;;;;;;;;;;;22.51;65.30;100955.72;5073354;28;20108;-85
2022/09/30 00:13:23;;;;;;;6.03;5.43;;;;;;;22.39;65.30;100946.75;5068650;28;19939;-87
2022/09/30 00:15:48;;;;;;;6.63;5.50;;;;;;;22.25;65.26;100922.69;5071013;28;20482;-86
2022/09/30 00:18:14;;;;;;;;;;;;;;;22.48;65.12;100953.03;5071453;28;20062;-86
2022/09/30 00:20:39;;;;;;;9.63;5.40;;;;;;;22.36;64.85;100928.97;5054037;28;19923;-87
2022/09/30 00:23:05;;;;;;;6.50;5.50;;;;;;;22.45;64.72;100954.78;5070898;28;20021;-86
2022/09/30 00:25:31;;;;;;;7.38;5.85;;;;;;;22.43;64.70;100948.56;5072831;28;20033;-87
2022/09/30 00:27:56;;;;;;;;;;;;;;;22.50;64.76;100958.34;5070378;28;20031;-87
2022/09/30 00:30:22;;;;;;;6.25;5.45;;;;;;;22.39;64.51;100942.31;5070878;28;19916;-87
2022/09/30 00:32:47;;;;;;;;;;;;;;;22.47;64.58;100961.00;5069934;28;20020;-86
2022/09/30 00:35:13;;;;;;;6.97;5.50;;;;;;;22.44;64.51;100950.34;5064916;28;19916;-86
2022/09/30 00:37:38;;;;;;;;;;;;;;;22.46;64.55;100959.25;5061992;28;20032;-86
2022/09/30 00:40:04;;;;;;;7.88;5.70;;;;;;;22.38;64.53;100948.53;5050527;28;19920;-87
2022/09/30 00:42:30;;;;;;;6.70;5.53;;;;;;;22.42;64.58;100962.75;5069014;28;20070;-86
2022/09/30 00:45:02;;;;;;;;;;;;;;;22.46;64.77;100965.44;5068452;28;20037;-86
2022/09/30 00:47:38;;;;;;;7.10;5.68;;;;;;;22.42;64.74;100960.97;5053781;28;19913;-86
2022/09/30 00:50:19;;;;;;;8.20;5.57;;;;;;;22.37;64.89;100954.69;5035754;28;20124;-86
2022/09/30 00:52:51;;;;;;;7.53;5.50;;;;;;;22.06;64.92;100903.88;5059918;28;20040;-87
2022/09/30 00:55:29;;;;;;;6.10;5.47;;;;;;;22.42;64.93;100960.97;5060956;28;20023;-87
2022/09/30 00:57:55;;;;;;;8.15;5.53;;;;;;;22.17;65.15;100926.13;5037010;28;20497;-86
2022/09/30 01:00:21;;;;;;;7.40;6.10;;;;;;;22.39;65.73;100963.59;5053358;28;20497;-86
2022/09/30 01:02:47;;;;;;;5.93;5.07;;;;;;;22.43;64.88;100969.84;5066115;28;20087;-86
2022/09/30 01:05:13;;;;;;;6.68;5.72;;;;;;;22.39;65.04;100971.56;5071068;28;20086;-87
2022/09/30 01:07:39;;;;;;;6.65;5.70;;;;;;;22.42;64.90;100978.72;5050775;28;20032;-86
2022/09/30 01:10:05;;;;;;;6.97;5.53;;;;;;;22.28;64.72;100959.94;5053185;28;20116;-87
2022/09/30 01:12:31;;;;;;;7.13;5.70;;;;;;;22.42;64.57;100984.03;5052531;28;20024;-87
2022/09/30 01:14:57;;;;;;;6.28;5.32;;;;;;;22.27;64.70;100960.84;5071726;28;20025;-86
2022/09/30 01:17:38;;;;;;;6.10;5.43;;;;;;;22.39;65.02;100978.66;5051899;28;20618;-86
2022/09/30 01:20:29;;;;;;;9.13;5.85;;;;;;;22.39;64.56;100984.88;5068614;28;20067;-85
2022/09/30 01:23:12;;;;;;;6.50;5.55;;;;;;;22.39;64.59;100987.53;5053232;28;20106;-87
2022/09/30 01:25:56;;;;;;;7.80;6.07;;;;;;;22.39;64.99;100982.22;5058144;28;20032;-87
2022/09/30 01:28:46;;;;;;;6.05;5.20;;;;;;;22.37;65.02;100986.63;5059112;28;20185;-86
2022/09/30 01:31:33;;;;;;;6.65;5.80;;;;;;;22.36;64.85;100987.53;5067989;28;20083;-86
2022/09/30 01:34:12;;;;;;;6.43;5.60;;;;;;;22.36;64.74;100988.41;5053532;28;20032;-86
2022/09/30 01:36:50;;;;;;;7.05;5.18;;;;;;;22.34;64.14;100984.84;5055006;28;20539;-86
2022/09/30 01:40:00;;;;;;;6.85;5.80;;;;;;;22.34;64.41;100998.16;5068865;28;20493;-86
2022/09/30 01:42:42;;;;;;;7.18;6.10;;;;;;;22.24;64.05;100985.63;5067068;28;20089;-86
2022/09/30 01:45:42;;;;;;;7.63;5.85;;;;;;;22.33;63.96;100996.38;5070344;28;20035;-86
2022/09/30 01:48:30;;;;;;;6.80;5.75;;;;;;;22.35;64.28;101010.59;5031772;28;20089;-86
2022/09/30 01:51:22;;;;;;;7.72;6.05;;;;;;;22.18;63.92;100985.53;5054781;28;20034;-84
2022/09/30 01:53:55;;;;;;;6.90;5.88;;;;;;;22.34;65.75;101010.56;5013338;28;20041;-85
2022/09/30 01:56:26;;;;;;;6.43;5.55;;;;;;;22.36;65.34;101011.47;5049505;28;20040;-85
2022/09/30 01:59:01;;;;;;;8.15;6.07;;;;;;;22.35;65.37;101015.91;5071387;28;20025;-86
2022/09/30 02:01:31;;;;;;;6.78;6.07;;;;;;;22.32;65.41;101018.53;5052706;28;20031;-85
2022/09/30 02:04:00;;;;;;;7.68;5.50;;;;;;;22.35;65.38;101023.88;5054800;28;20103;-86
2022/09/30 02:06:35;;;;;;;6.38;5.60;;;;;;;22.31;65.45;101018.53;5069603;28;20120;-86
2022/09/30 02:09:09;;;;;;;6.28;5.53;;;;;;;22.23;65.05;101004.25;5066634;28;20041;-86
2022/09/30 02:11:36;;;;;;;6.60;5.90;;;;;;;22.35;65.48;101020.31;5034434;28;20029;-86
2022/09/30 02:14:11;;;;;;;7.13;5.75;;;;;;;22.32;65.32;101014.97;5051387;28;20037;-86
2022/09/30 02:16:39;;;;;;;6.47;5.60;;;;;;;22.32;65.51;101025.63;5069525;28;20115;-86
2022/09/30 02:19:38;;;;;;;6.38;5.72;;;;;;;22.29;65.04;101015.84;5067257;28;20036;-87
2022/09/30 02:22:13;;;;;;;6.70;5.72;;;;;;;22.28;64.72;101013.16;5041351;28;20033;-87
2022/09/30 02:24:38;;;;;;;6.57;5.93;;;;;;;22.30;65.32;101017.63;5066621;28;20486;-87
2022/09/30 02:27:10;;;;;;;5.63;5.07;;;;;;;22.32;65.23;101020.28;5034555;28;20059;-87
2022/09/30 02:29:41;;;;;;;7.53;5.60;;;;;;;22.20;65.62;101009.50;5052722;28;20502;-87
2022/09/30 02:32:15;;;;;;;7.15;6.07;;;;;;;22.26;64.81;101021.13;5051799;28;20035;-87
2022/09/30 02:34:44;;;;;;;6.07;5.47;;;;;;;22.17;65.06;101019.22;5046673;28;20025;-86
2022/09/30 02:37:24;;;;;;;6.53;5.93;;;;;;;22.10;64.24;101019.16;5047356;28;20036;-86
2022/09/30 02:40:05;;;;;;;7.00;5.97;;;;;;;22.26;64.66;101052.16;5056942;28;20028;-86
2022/09/30 02:42:31;;;;;;;6.07;5.57;;;;;;;22.21;63.49;101038.78;5060947;28;20036;-86
2022/09/30 02:45:03;;;;;;;8.63;5.80;;;;;;;22.23;63.77;101050.38;5067550;28;20029;-86
2022/09/30 02:47:46;;;;;;;6.40;5.80;;;;;;;22.26;64.83;101044.19;5042079;28;20028;-86
2022/09/30 02:50:49;;;;;;;8.77;5.75;;;;;;;22.26;65.04;101050.38;5068605;28;20028;-85
2022/09/30 02:53:21;;;;;;;7.65;5.70;;;;;;;22.27;64.21;101061.94;5069024;28;20032;-86
2022/09/30 02:56:10;;;;;;;7.68;6.03;;;;;;;22.24;63.25;101053.91;5069518;28;20028;-83
2022/09/30 02:58:38;;;;;;;6.57;5.85;;;;;;;22.22;63.67;101053.84;5053764;28;20032;-85
2022/09/30 03:01:06;;;;;;;7.32;5.82;;;;;;;22.21;64.58;101052.09;5072968;28;20037;-84
2022/09/30 03:03:38;;;;;;;6.72;5.85;;;;;;;22.17;65.20;101045.81;5071901;28;20094;-84
2022/09/30 03:06:03;;;;;;;6.75;5.50;;;;;;;22.20;65.38;101055.59;5064317;28;20032;-84
2022/09/30 03:08:29;;;;;;;8.10;6.50;;;;;;;22.16;65.35;101035.16;5063614;28;20028;-85
2022/09/30 03:10:55;;;;;;;7.25;5.90;;;;;;;22.19;64.25;101052.94;5048377;28;20052;-85
2022/09/30 03:13:38;;;;;;;6.97;5.90;;;;;;;22.19;63.36;101056.50;5069870;28;20501;-84
2022/09/30 03:16:18;;;;;;;6.68;5.97;;;;;;;22.06;63.06;101033.31;5071322;28;20032;-85
2022/09/30 03:19:13;;;;;;;6.40;5.80;;;;;;;22.19;63.31;101068.91;5073528;28;20024;-85
2022/09/30 03:21:45;;;;;;;5.85;5.22;;;;;;;22.19;63.65;101064.47;5045378;28;20043;-83
2022/09/30 03:28:07;;;;;;;7.85;5.80;;;;;;;22.21;64.05;101070.69;5040999;28;20094;-84
2022/09/30 03:30:40;;;;;;;6.68;5.97;;;;;;;22.13;64.26;101061.75;5073861;28;20037;-85
2022/09/30 03:33:22;;;;;;;6.20;5.55;;;;;;;22.19;64.27;101080.44;5051057;28;20080;-85
2022/09/30 03:36:08;;;;;;;6.40;5.32;;;;;;;22.14;64.02;101085.72;5048479;28;20078;-85
2022/09/30 03:38:45;;;;;;;8.05;6.30;;;;;;;22.16;63.51;101088.34;5070311;28;20028;-85
2022/09/30 03:41:23;;;;;;;6.75;5.95;;;;;;;22.12;63.68;101094.56;5073634;28;20049;-85
2022/09/30 03:44:08;;;;;;;6.63;5.70;;;;;;;22.12;63.62;101092.78;5073613;28;20025;-85
2022/09/30 03:46:37;;;;;;;6.30;5.70;;;;;;;22.14;63.93;101090.16;5068144;28;20025;-85
2022/09/30 03:49:08;;;;;;;6.50;5.82;;;;;;;22.13;65.24;101083.03;5065851;28;20457;-85
2022/09/30 03:51:38;;;;;;;6.50;5.82;;;;;;;22.11;65.28;101090.97;5066839;28;20016;-84
2022/09/30 03:54:10;;;;;;;6.40;5.80;;;;;;;21.98;64.58;101069.56;5065057;28;20024;-84
2022/09/30 03:56:41;;;;;;;6.47;5.60;;;;;;;22.12;64.55;101092.78;5066647;28;20021;-84
2022/09/30 03:59:23;;;;;;;7.63;6.07;;;;;;;22.06;64.27;101075.84;5073521;28;20496;-83
2022/09/30 04:01:49;;;;;;;7.10;5.85;;;;;;;22.13;64.18;101081.25;5066599;28;20473;-83
2022/09/30 04:04:15;;;;;;;;;;;;;;;22.15;64.85;101087.47;5067386;28;20103;-84
2022/09/30 04:06:41;;;;;;;7.17;5.60;;;;;;;22.12;65.30;101086.56;5072974;28;19977;-85
2022/09/30 04:09:06;;;;;;;7.05;6.32;;;;;;;21.96;64.71;101056.22;5067795;28;20807;-84
2022/09/30 04:11:32;;;;;;;;;;;;;;;22.15;64.75;101083.94;5073460;28;20025;-84
2022/09/30 04:14:00;;;;;;;7.93;7.10;;;;;;;22.08;64.66;101090.94;5064480;28;19913;-83
2022/09/30 04:16:27;;;;;;;7.03;6.32;;;;;;;22.07;64.85;101096.25;5064881;28;20024;-84
2022/09/30 04:18:53;;;;;;;6.95;6.25;;;;;;;22.02;65.05;101087.34;5065708;28;20032;-84
2022/09/30 04:21:19;;;;;;;8.23;6.35;;;;;;;22.09;64.51;101106.03;5072843;28;20036;-83
2022/09/30 04:23:44;;;;;;;6.95;6.03;;;;;;;22.11;64.74;101108.72;5072969;28;20028;-83
2022/09/30 04:26:11;;;;;;;;;;;;;;;22.11;64.42;101103.38;5073314;28;20028;-83
2022/09/30 04:28:37;;;;;;;6.85;5.63;;;;;;;22.06;64.70;101110.44;5072132;28;20371;-84
2022/09/30 04:31:04;;;;;;;6.63;6.00;;;;;;;22.04;64.70;101118.38;5054933;28;20029;-84
2022/09/30 04:33:30;;;;;;;8.38;6.53;;;;;;;22.07;65.13;101113.09;5064429;28;20029;-83
2022/09/30 04:35:57;;;;;;;7.78;5.70;;;;;;;22.06;64.96;101113.09;5071024;28;20021;-83
2022/09/30 04:38:23;;;;;;;7.78;6.07;;;;;;;22.08;64.38;101122.88;5072589;28;20086;-83
2022/09/30 04:40:53;;;;;;;6.82;6.10;;;;;;;22.04;64.74;101120.16;5070619;28;20080;-82
2022/09/30 04:43:21;;;;;;;7.90;6.15;;;;;;;22.04;63.72;101129.03;5065676;28;20375;-83
2022/09/30 04:45:46;;;;;;;9.07;6.20;;;;;;;22.11;63.72;101136.19;5059420;28;20028;-84
2022/09/30 04:48:13;;;;;;;6.65;5.90;;;;;;;21.96;63.76;101122.72;5061675;28;20104;-84
2022/09/30 04:50:39;;;;;;;6.55;5.95;;;;;;;22.00;63.55;101137.84;5063231;28;20017;-84
2022/09/30 04:53:05;;;;;;;8.20;6.13;;;;;;;22.01;63.20;101136.06;5055574;28;20024;-85
2022/09/30 04:55:31;;;;;;;8.45;5.97;;;;;;;21.98;63.52;101141.34;5054132;28;20025;-82
2022/09/30 04:57:56;;;;;;;7.70;6.35;;;;;;;22.03;63.30;101137.84;5045636;28;20035;-84
2022/09/30 05:00:23;;;;;;;6.72;6.03;;;;;;;22.03;63.00;101142.28;5072033;28;20040;-85
2022/09/30 05:02:50;;;;;;;6.97;6.28;;;;;;;22.00;63.07;101142.25;5071848;28;20036;-86
2022/09/30 05:05:15;;;;;;;;;;;;;;;22.00;62.86;101148.47;5065887;28;20020;-87
2022/09/30 05:07:41;;;;;;;8.23;6.22;;;;;;;21.94;62.96;101133.31;5071720;28;19915;-85
2022/09/30 05:10:07;;;;;;;6.80;6.10;;;;;;;22.01;63.02;101141.38;5071980;28;20059;-86
2022/09/30 05:12:33;;;;;;;8.20;6.30;;;;;;;22.01;63.20;101144.91;5071736;28;20028;-87
2022/09/30 05:14:59;;;;;;;;;;;;;;;22.06;63.54;101142.34;5071737;28;20028;-83
2022/09/30 05:17:24;;;;;;;7.15;6.15;;;;;;;21.96;63.71;101138.66;5071365;28;20015;-83
2022/09/30 05:19:50;;;;;;;10.77;7.90;;;;;;;22.02;63.57;101160.03;5060451;28;20035;-84
2022/09/30 05:22:15;;;;;;;7.95;7.00;;;;;;;21.97;63.35;101164.41;5069942;28;20028;-86
2022/09/30 05:24:41;;;;;;;9.05;7.20;;;;;;;21.88;63.67;101157.16;5069558;28;20490;-87
2022/09/30 05:27:07;;;;;;;9.18;6.80;;;;;;;21.95;63.38;101166.16;5071536;28;20560;-85
2022/09/30 05:29:33;;;;;;;7.25;6.55;;;;;;;21.82;63.49;101151.75;5056049;28;20417;-86
2022/09/30 05:31:58;;;;;;;7.20;6.15;;;;;;;21.91;63.57;101146.59;5066492;28;20029;-87
2022/09/30 05:34:24;;;;;;;;;;;;;;;22.02;63.90;101168.00;5052352;28;20481;-86
2022/09/30 05:36:49;;;;;;;7.43;6.63;;;;;;;21.99;63.83;101169.72;5056583;28;20386;-85
2022/09/30 05:39:15;;;;;;;8.73;6.85;;;;;;;21.93;64.21;101158.13;5058351;28;20174;-85
2022/09/30 05:41:41;;;;;;;7.68;6.13;;;;;;;21.92;64.02;101166.09;5053690;28;20029;-85
2022/09/30 05:44:08;;;;;;;7.45;6.10;;;;;;;21.93;63.54;101165.22;5050835;28;20409;-86
2022/09/30 05:46:33;;;;;;;6.88;6.15;;;;;;;21.85;64.86;101149.16;5063715;28;20048;-85
2022/09/30 05:48:59;;;;;;;7.78;6.43;;;;;;;21.90;64.76;101158.06;5055303;28;20920;-84
2022/09/30 05:51:25;;;;;;;7.25;5.82;;;;;;;21.95;64.14;101152.84;5064270;28;20037;-84
2022/09/30 05:53:51;;;;;;;8.13;6.82;;;;;;;21.99;64.09;101159.97;5063201;28;20033;-84
2022/09/30 05:56:16;;;;;;;;;;;;;;;22.02;64.21;101151.16;5041225;28;20058;-84
2022/09/30 05:58:42;;;;;;;6.97;5.85;;;;;;;21.95;64.33;101153.72;5052511;28;19919;-83
2022/09/30 06:01:10;;;;;;;7.28;6.18;;;;;;;21.99;64.40;101157.31;5068711;28;20027;-84
2022/09/30 06:03:37;;;;;;;7.25;6.20;;;;;;;21.89;64.54;101155.41;5052207;28;20112;-83
2022/09/30 06:06:04;;;;;;;7.55;5.95;;;;;;;21.95;64.84;101174.13;5051967;28;20077;-84
2022/09/30 06:08:29;;;;;;;6.68;6.07;;;;;;;21.94;64.99;101175.84;5067988;28;20059;-84
2022/09/30 06:10:57;;;;;;;6.85;6.15;;;;;;;21.96;64.74;101182.09;5069428;28;20558;-85
2022/09/30 06:13:24;;;;;;;6.95;6.05;;;;;;;21.90;64.74;101170.50;5052430;28;20502;-89
2022/09/30 06:16:00;;;;;;;8.50;6.40;;;;;;;21.97;64.77;101185.66;5054908;28;20025;-87
2022/09/30 06:18:27;;;;;;;6.07;5.47;;;;;;;21.93;64.54;101182.06;5046428;28;20109;-85
2022/09/30 06:21:01;;;;;;;8.38;6.47;;;;;;;21.97;64.80;101204.28;5070511;28;20071;-86
2022/09/30 06:23:27;;;;;;;8.63;5.82;;;;;;;22.00;64.82;101214.06;5070534;28;20024;-86
2022/09/30 06:25:53;;;;;;;9.45;6.22;;;;;;;21.97;64.81;101206.94;5070045;28;20115;-87
2022/09/30 06:28:19;;;;;;;;;;;;;;;22.03;64.39;101211.44;5074222;28;20075;-86
2022/09/30 06:30:45;;;;;;;7.80;6.30;;;;;;;21.97;64.77;101212.28;5067071;28;19920;-86
2022/09/30 06:33:12;;;;;;;6.45;5.68;;;;;;;21.91;64.75;101198.88;5063881;28;20027;-85
2022/09/30 06:35:40;;;;;;;6.55;5.95;;;;;;;21.91;64.96;101199.75;5068514;28;20059;-85
2022/09/30 06:38:07;;;;;;;7.10;6.22;;;;;;;21.90;64.92;101200.63;5074612;28;20047;-84
2022/09/30 06:40:32;;;;;;;7.03;6.05;;;;;;;21.92;64.59;101212.16;5074882;28;20056;-86
2022/09/30 06:42:59;;;;;;;7.20;5.68;;;;;;;21.98;64.26;101214.03;5072605;28;20062;-87
2022/09/30 06:45:25;;;;;;;7.72;6.10;;;;;;;21.90;64.26;101211.25;5062505;28;20029;-85
2022/09/30 06:47:50;;;;;;;;;;;;;;;22.04;64.14;101232.75;5075015;28;20474;-85
2022/09/30 06:50:21;;;;;;;7.88;5.75;;;;;;;21.89;64.70;101222.78;5074816;28;19912;-87
2022/09/30 06:52:47;;;;;;;6.95;6.22;;;;;;;22.03;64.55;101241.59;5074648;28;20047;-87
2022/09/30 06:55:12;;;;;;;11.10;7.72;;;;;;;22.00;64.47;101244.22;5069801;28;20513;-87
2022/09/30 06:57:39;;;;;;;;;;;;;;;22.05;64.15;101250.47;5074640;28;20111;-87
2022/09/30 07:00:06;;;;;;;6.97;6.28;;;;;;;21.90;64.18;101221.88;5074406;28;19965;-87
2022/09/30 07:02:33;;;;;;;9.80;6.03;;;;;;;22.00;64.00;101245.97;5065670;28;20464;-87
2022/09/30 07:04:59;;;;;;;7.85;5.80;;;;;;;22.01;63.70;101253.06;5074556;28;20390;-86
2022/09/30 07:07:25;;;;;;;6.22;5.60;;;;;;;22.04;64.26;101262.00;5064846;28;20511;-86
2022/09/30 07:09:50;;;;;;;7.88;6.15;;;;;;;22.03;64.57;101261.97;5074358;28;20081;-86
2022/09/30 07:12:16;;;;;;;6.18;5.45;;;;;;;22.04;64.18;101261.13;5065513;28;20031;-86
2022/09/30 07:14:41;;;;;;;8.13;5.60;;;;;;;22.03;64.65;101259.31;5074424;28;20029;-87
2022/09/30 07:17:07;;;;;;;6.35;5.53;;;;;;;22.05;64.27;101262.88;5074141;28;20025;-88
2022/09/30 07:19:33;;;;;;;6.80;6.10;;;;;;;21.91;64.46;101238.75;5074423;28;20029;-87
2022/09/30 07:22:26;;;;;;;7.10;6.03;;;;;;;22.03;64.91;101260.19;5060477;28;20421;-86
2022/09/30 07:24:46;;;;;;;7.03;5.47;;;;;;;22.04;64.62;101253.13;5058879;28;20044;-86
2022/09/30 07:27:12;;;;;;;6.30;5.70;;;;;;;22.06;65.09;101257.59;5074356;28;20032;-87
2022/09/30 07:29:40;;;;;;;5.95;5.40;;;;;;;22.06;65.16;101251.41;5056185;28;20502;-87
2022/09/30 07:32:06;;;;;;;6.50;5.30;;;;;;;22.06;64.91;101252.28;5068628;28;20082;-87
2022/09/30 07:34:32;;;;;;;6.10;5.50;;;;;;;22.02;65.64;101252.22;5063935;28;20467;-86
2022/09/30 07:36:57;;;;;;;6.00;5.40;;;;;;;21.99;65.59;101246.84;5064727;28;20024;-86
2022/09/30 07:39:23;;;;;;;6.07;5.50;;;;;;;22.06;65.30;101256.72;5068293;28;20028;-87
2022/09/30 07:41:49;;;;;;;6.38;5.18;;;;;;;22.09;65.73;101256.75;5073785;28;20070;-86
2022/09/30 07:44:15;;;;;;;7.63;5.30;;;;;;;21.96;66.06;101235.28;5068511;28;20043;-87
2022/09/30 07:46:41;;;;;;;7.85;5.00;;;;;;;22.04;65.95;101261.13;5065743;28;20024;-87
2022/09/30 07:49:13;;;;;;;6.50;5.47;;;;;;;22.02;65.47;101255.78;5073621;28;20146;-87
2022/09/30 07:51:40;;;;;;;5.75;5.20;;;;;;;22.05;65.47;101253.13;5073456;28;20016;-86
2022/09/30 07:54:12;;;;;;;5.75;5.18;;;;;;;22.05;65.43;101266.44;5065345;28;20455;-86
2022/09/30 07:56:39;;;;;;;7.25;5.45;;;;;;;22.07;64.96;101264.69;5073556;28;20453;-87
2022/09/30 07:59:05;;;;;;;5.80;5.15;;;;;;;22.09;64.75;101267.38;5073531;28;20072;-86
2022/09/30 08:01:31;;;;;;;;;;;;;;;22.11;65.00;101266.53;5073150;28;20032;-86
2022/09/30 08:03:59;;;;;;;5.45;4.93;;;;;;;22.09;64.78;101278.03;5068836;28;19920;-86
2022/09/30 08:06:26;;;;;;;6.65;5.38;;;;;;;21.95;65.42;101257.44;5061697;28;20028;-87
2022/09/30 08:08:54;;;;;;;5.97;5.38;;;;;;;22.01;64.93;101261.94;5067879;28;20048;-87
2022/09/30 08:11:19;;;;;;;7.47;5.38;;;;;;;21.96;65.37;101250.34;5065048;28;20035;-89
2022/09/30 08:13:53;;;;;;;13.68;6.05;;;;;;;22.04;65.28;101266.44;5063140;28;20029;-90
2022/09/30 08:16:19;;;;;;;14.60;6.90;;;;;;;22.07;65.94;101270.00;5073236;28;20103;-93
2022/09/30 08:18:45;;;;;;;14.88;6.68;;;;;;;22.07;66.86;101269.13;5073267;28;20031;-87
2022/09/30 08:21:10;;;;;;;13.45;6.75;;;;;;;22.06;66.71;101278.88;5073272;28;20021;-87
2022/09/30 08:23:36;;;;;;;;;;;;;;;22.05;65.89;101271.75;5055470;28;20394;-87
2022/09/30 08:26:07;;;;;;;10.73;6.75;;;;;;;21.93;65.69;101259.19;5055108;28;19993;-86
2022/09/30 08:28:33;;;;;;;12.35;6.28;;;;;;;21.85;66.17;101258.16;5068828;28;20098;-86
2022/09/30 08:31:16;;;;;;;9.95;6.30;;;;;;;21.88;66.43;101281.25;5073242;28;20089;-86
2022/09/30 08:33:42;;;;;;;7.82;6.07;;;;;;;21.84;66.62;101259.03;5067224;28;20024;-86
2022/09/30 08:36:13;;;;;;;8.30;6.07;;;;;;;21.82;66.72;101265.19;5067138;28;20441;-86
2022/09/30 08:38:39;;;;;;;8.07;6.22;;;;;;;21.91;66.84;101278.66;5054546;28;20028;-85
2022/09/30 08:41:14;;;;;;;7.63;6.18;;;;;;;21.90;66.68;101284.81;5065544;28;20043;-86
2022/09/30 08:44:09;;;;;;;8.30;5.80;;;;;;;21.91;66.87;101284.84;5060021;28;20020;-86
2022/09/30 08:47:12;;;;;;;7.47;6.00;;;;;;;21.90;67.09;101284.81;5072358;28;20035;-86
2022/09/30 08:49:44;;;;;;;6.55;5.85;;;;;;;21.83;67.17;101285.63;5071542;28;20029;-86
2022/09/30 08:52:19;;;;;;;9.85;5.72;;;;;;;21.90;66.18;101288.38;5067068;28;20625;-87
2022/09/30 08:54:51;;;;;;;9.57;6.03;;;;;;;21.83;66.94;101282.94;5065736;28;20020;-87
2022/09/30 08:57:17;;;;;;;6.22;5.45;;;;;;;21.81;67.09;101272.28;5063097;28;20036;-87
2022/09/30 08:59:54;;;;;;;6.45;5.68;;;;;;;21.86;67.39;101286.53;5065935;28;20024;-87
2022/09/30 09:02:54;;;;;;;;;;;;;;;21.89;67.23;101291.91;5059605;28;20436;-87
2022/09/30 09:05:48;;;;;;;6.45;5.65;;;;;;;21.89;67.41;101289.25;4981435;28;19952;-87
2022/09/30 09:08:21;;;;;;;7.45;5.72;;;;;;;21.87;67.54;101287.44;5069597;28;20040;-83
2022/09/30 09:11:07;;;;;;;7.20;5.55;;;;;;;21.87;67.45;101287.44;5076047;28;20089;-87
2022/09/30 09:14:11;;;;;;;6.15;5.55;;;;;;;21.87;67.53;101291.00;5067697;28;20028;-87
2022/09/30 09:17:18;;;;;;;6.25;5.65;;;;;;;21.85;67.90;101292.72;4998450;28;20499;-85
2022/09/30 09:19:50;;;;;;;6.80;5.65;;;;;;;21.88;67.74;101294.53;5002237;28;20503;-85
2022/09/30 09:22:16;;;;;;;6.05;5.45;;;;;;;21.89;67.80;101293.69;5047219;28;20040;-85
2022/09/30 09:24:46;;;;;;;7.28;5.28;;;;;;;21.86;67.55;101294.50;5054008;28;20024;-85
2022/09/30 09:27:44;;;;;;;8.70;5.93;;;;;;;21.82;67.65;101289.13;5065030;28;20182;-85
2022/09/30 09:30:12;;;;;;;6.00;5.40;;;;;;;21.88;67.74;101292.78;5026418;28;20040;-86
2022/09/30 09:32:38;;;;;;;6.18;5.57;;;;;;;21.84;67.86;101301.56;5052733;28;20144;-86
2022/09/30 09:35:16;;;;;;;6.45;5.53;;;;;;;21.94;68.47;101294.63;5067198;28;20522;-85
2022/09/30 09:40:34;;;;;;;9.27;5.97;;;;;;;22.09;67.68;101300.19;5071761;28;20042;-85
2022/09/30 09:43:12;;;;;;;7.68;6.18;;;;;;;21.96;67.91;101298.22;5071215;28;20094;-86
2022/09/30 09:45:45;;;;;;;6.30;5.63;;;;;;;21.90;67.89;101285.72;5063578;28;20024;-85
2022/09/30 09:48:14;;;;;;;7.55;5.50;;;;;;;21.97;67.80;101289.38;5071221;28;20081;-85
2022/09/30 09:50:55;;;;;;;7.75;5.93;;;;;;;21.99;67.63;101300.03;5071189;28;20091;-85
2022/09/30 09:53:40;;;;;;;6.30;5.22;;;;;;;21.93;67.86;101296.41;5066477;28;20051;-85
2022/09/30 09:56:18;;;;;;;7.50;6.13;;;;;;;21.97;67.93;101305.34;5058530;28;20086;-85
2022/09/30 09:59:07;;;;;;;7.00;6.10;;;;;;;21.98;67.66;101298.25;5053473;28;20045;-84
2022/09/30 10:01:35;;;;;;;7.38;5.97;;;;;;;21.97;67.92;101300.03;5071028;28;20035;-85
2022/09/30 10:04:25;;;;;;;7.18;5.40;;;;;;;21.95;67.97;101305.31;5049279;28;20029;-85
2022/09/30 10:06:54;;;;;;;7.43;5.78;;;;;;;21.94;67.96;101299.97;5062745;28;20429;-86
2022/09/30 10:09:24;;;;;;;6.35;5.75;;;;;;;21.92;68.26;101291.06;5060989;28;20560;-85
2022/09/30 10:11:54;;;;;;;6.20;5.60;;;;;;;21.88;68.05;101282.13;5070911;28;20025;-84
2022/09/30 10:14:21;;;;;;;7.45;5.78;;;;;;;21.89;67.93;101286.59;5041182;28;20456;-83
2022/09/30 10:16:46;;;;;;;6.47;5.63;;;;;;;21.95;67.93;101286.69;5070330;28;20021;-84
2022/09/30 10:19:27;;;;;;;6.88;6.18;;;;;;;21.95;68.01;101294.69;5043641;28;20398;-84
2022/09/30 10:22:13;;;;;;;6.88;5.82;;;;;;;21.90;67.99;101285.72;5049603;28;20037;-84
2022/09/30 10:24:39;;;;;;;6.22;5.50;;;;;;;21.88;68.19;101284.78;5053047;28;20402;-84
2022/09/30 10:27:33;;;;;;;6.22;5.43;;;;;;;21.91;68.26;101295.50;5039430;28;20087;-82
2022/09/30 10:29:59;;;;;;;6.20;5.57;;;;;;;21.91;68.15;101300.81;5054791;28;20502;-83
2022/09/30 10:32:25;;;;;;;6.90;5.65;;;;;;;21.90;68.32;101300.78;5053551;28;20126;-82
2022/09/30 10:35:17;;;;;;;6.07;5.47;;;;;;;21.86;68.40;101288.31;5049244;28;20033;-83
2022/09/30 10:37:50;;;;;;;6.43;5.60;;;;;;;21.93;68.23;101290.22;5070762;28;20508;-83
2022/09/30 10:40:17;;;;;;;6.43;5.55;;;;;;;21.95;68.20;101285.81;5050385;28;20062;-84
2022/09/30 10:42:45;;;;;;;6.07;5.47;;;;;;;22.02;68.77;101287.69;5046293;28;20033;-86
2022/09/30 10:45:32;;;;;;;5.97;5.38;;;;;;;22.04;68.78;101290.38;5070618;28;20012;-85
2022/09/30 10:48:00;;;;;;;7.53;6.10;;;;;;;21.91;68.52;101260.03;5048147;28;20410;-87
2022/09/30 10:50:26;;;;;;;7.25;5.80;;;;;;;21.99;68.55;101281.41;5052998;28;20028;-86
2022/09/30 10:52:56;;;;;;;8.32;6.13;;;;;;;21.95;68.36;101265.41;5060504;28;20508;-85
2022/09/30 10:55:21;;;;;;;6.28;5.63;;;;;;;21.98;68.50;101269.00;5056301;28;20072;-85
2022/09/30 10:57:49;;;;;;;6.35;5.72;;;;;;;21.96;68.71;101269.84;5058853;28;20028;-85
2022/09/30 11:00:18;;;;;;;6.60;5.68;;;;;;;21.93;68.26;101256.53;5056827;28;20103;-84
2022/09/30 11:02:54;;;;;;;6.50;5.88;;;;;;;22.01;68.24;101261.94;5054629;28;20028;-86
2022/09/30 11:05:23;;;;;;;7.37;5.70;;;;;;;22.02;68.19;101269.06;5053325;28;20055;-87
2022/09/30 11:07:49;;;;;;;7.00;6.20;;;;;;;22.02;68.22;101262.84;5050750;28;20043;-87
2022/09/30 11:10:18;;;;;;;6.57;5.65;;;;;;;22.02;68.16;101260.19;5068965;28;20028;-87
2022/09/30 11:12:56;;;;;;;6.40;5.80;;;;;;;22.00;68.27;101262.81;5069422;28;20021;-88
2022/09/30 11:15:27;;;;;;;5.85;5.25;;;;;;;21.98;67.98;101253.03;5070719;28;20028;-88
2022/09/30 11:18:00;;;;;;;6.22;5.63;;;;;;;22.02;68.21;101268.19;5058686;28;20056;-88
2022/09/30 11:20:33;;;;;;;5.90;5.30;;;;;;;22.00;67.91;101261.94;5044603;28;20031;-88
2022/09/30 11:23:13;;;;;;;6.30;5.65;;;;;;;22.06;67.92;101275.34;5068104;28;20021;-87
2022/09/30 11:25:43;;;;;;;6.53;5.65;;;;;;;22.10;67.74;101271.84;5056368;28;20036;-88
2022/09/30 11:28:47;;;;;;;6.18;5.38;;;;;;;22.05;67.87;101268.22;5054721;28;20028;-91
2022/09/30 11:31:49;;;;;;;6.70;5.47;;;;;;;22.00;67.71;101257.50;5062137;28;20106;-88
2022/09/30 11:34:43;;;;;;;5.53;4.97;;;;;;;22.10;67.76;101271.84;5073447;28;20028;-88
2022/09/30 11:37:51;;;;;;;5.63;5.10;;;;;;;22.13;67.69;101263.91;5073778;28;20031;-87
2022/09/30 11:40:58;;;;;;;5.65;4.93;;;;;;;22.12;67.81;101267.44;5049460;28;20037;-86
2022/09/30 11:43:49;;;;;;;5.90;5.30;;;;;;;22.14;67.76;101269.25;5044380;28;20032;-85
2022/09/30 11:46:30;;;;;;;5.80;5.20;;;;;;;22.22;67.56;101269.34;5073348;28;20062;-84
2022/09/30 11:48:55;;;;;;;6.43;5.00;;;;;;;22.23;67.59;101271.19;5064780;28;20094;-86
2022/09/30 11:51:45;;;;;;;7.00;5.10;;;;;;;22.22;67.59;101269.34;5073504;28;20025;-85
2022/09/30 11:54:20;;;;;;;5.85;4.97;;;;;;;22.24;67.81;101280.94;5040419;28;20032;-86
2022/09/30 11:57:04;;;;;;;6.13;5.10;;;;;;;22.28;68.38;101288.09;5072937;28;20032;-86
2022/09/30 11:59:37;;;;;;;10.07;5.05;;;;;;;22.31;69.23;101285.50;5065558;28;20547;-86